Time;durP1;ratioP1;P1;durP2;ratioP2;P2;SDS_P1;SDS_P2;PMS_P1;PMS_P2;Temp;Humidity;BMP_temperature;BMP_pressure;BME280_temperature;BME280_humidity;BME280_pressure;Samples;Min_cycle;Max_cycle;Signal;HPM_P1;HPM_P2
2022/04/29 00:01:21;;;;;;;;;30.67;30.33;;;;;;;;5077992;27;45344;-76
2022/04/29 00:03:47;;;;;;;;;36.33;31.00;;;;;;;;5078049;28;45323;-75
2022/04/29 00:06:13;;;;;;;;;33.00;29.67;;;;;;;;5077471;27;46197;-75
2022/04/29 00:08:38;;;;;;;;;43.33;34.67;;;;;;;;5077524;27;45395;-75
2022/04/29 00:11:06;;;;;;;;;38.33;32.00;;;;;;;;5077602;27;45339;-74
2022/04/29 00:13:31;;;;;;;;;37.67;33.33;;;;;;;;5077763;28;45628;-74
2022/04/29 00:15:57;;;;;;;;;33.00;30.67;;;;;;;;5077400;27;45367;-75
2022/04/29 00:18:22;;;;;;;;;35.00;31.00;;;;;;;;5077743;28;45835;-75
2022/04/29 00:20:49;;;;;;;;;40.00;34.00;;;;;;;;5077506;27;45249;-74
2022/04/29 00:23:14;;;;;;;;;40.67;32.00;;;;;;;;5077626;27;45348;-75
2022/04/29 00:25:39;;;;;;;;;43.67;36.00;;;;;;;;5077262;27;46360;-75
2022/04/29 00:28:05;;;;;;;;;42.67;34.33;;;;;;;;5077302;27;45344;-76
2022/04/29 00:30:30;;;;;;;;;37.67;34.00;;;;;;;;5077492;27;45193;-74
2022/04/29 00:32:55;;;;;;;;;33.00;29.00;;;;;;;;5076543;28;45318;-75
2022/04/29 00:35:21;;;;;;;;;36.33;32.00;;;;;;;;5056838;27;45386;-76
2022/04/29 00:37:56;;;;;;;;;36.33;33.00;;;;;;;;5056896;28;45351;-78
2022/04/29 00:40:23;;;;;;;;;36.33;33.00;;;;;;;;5075801;27;45403;-75
2022/04/29 00:42:48;;;;;;;;;41.67;34.00;;;;;;;;5077466;27;45315;-76
2022/04/29 00:45:14;;;;;;;;;42.00;33.33;;;;;;;;5079814;27;47220;-77
2022/04/29 00:47:40;;;;;;;;;35.67;30.33;;;;;;;;5080627;27;45488;-76
2022/04/29 00:50:06;;;;;;;;;41.67;34.67;;;;;;;;5080693;27;45434;-77
2022/04/29 00:52:31;;;;;;;;;41.33;32.67;;;;;;;;5080923;27;45314;-76
2022/04/29 00:55:00;;;;;;;;;44.00;34.33;;;;;;;;5080413;27;46466;-77
2022/04/29 00:57:36;;;;;;;;;32.00;31.00;;;;;;;;5080517;27;45371;-76
2022/04/29 01:00:05;;;;;;;;;36.33;32.33;;;;;;;;5080692;27;45292;-77
2022/04/29 01:02:31;;;;;;;;;41.00;33.00;;;;;;;;5080618;27;45319;-76
2022/04/29 01:05:02;;;;;;;;;37.00;32.67;;;;;;;;5080169;27;47293;-76
2022/04/29 01:07:28;;;;;;;;;34.33;31.33;;;;;;;;5080240;27;45250;-76
2022/04/29 01:09:53;;;;;;;;;43.33;35.33;;;;;;;;5080525;27;45335;-76
2022/04/29 01:12:18;;;;;;;;;34.33;31.00;;;;;;;;5080317;28;45451;-76
2022/04/29 01:14:44;;;;;;;;;40.00;34.00;;;;;;;;5080077;28;46324;-77
2022/04/29 01:17:09;;;;;;;;;35.67;31.00;;;;;;;;5080028;28;45280;-75
2022/04/29 01:19:37;;;;;;;;;41.33;34.00;;;;;;;;5080197;27;45309;-77
2022/04/29 01:22:02;;;;;;;;;40.67;32.67;;;;;;;;5078953;27;45393;-76
2022/04/29 01:24:27;;;;;;;;;41.00;33.33;;;;;;;;5079812;28;47313;-76
2022/04/29 01:26:52;;;;;;;;;35.67;32.33;;;;;;;;5080125;28;45300;-75
2022/04/29 01:29:18;;;;;;;;;41.33;34.00;;;;;;;;5080131;28;45396;-76
2022/04/29 01:31:44;;;;;;;;;46.33;34.67;;;;;;;;5080033;27;45470;-76
2022/04/29 01:34:10;;;;;;;;;36.33;33.00;;;;;;;;5079553;27;46641;-77
2022/04/29 01:36:35;;;;;;;;;36.00;33.00;;;;;;;;5078517;27;45431;-77
2022/04/29 01:39:00;;;;;;;;;42.00;34.67;;;;;;;;5079100;28;45245;-77
2022/04/29 01:41:25;;;;;;;;;42.67;35.67;;;;;;;;5079377;27;45644;-76
2022/04/29 01:43:51;;;;;;;;;39.67;35.00;;;;;;;;5079227;27;46309;-75
2022/04/29 01:46:16;;;;;;;;;37.00;33.33;;;;;;;;5079296;27;45376;-76
2022/04/29 01:48:41;;;;;;;;;45.67;33.67;;;;;;;;5078430;27;45595;-76
2022/04/29 01:51:07;;;;;;;;;37.67;34.33;;;;;;;;5079591;27;45537;-76
2022/04/29 01:53:32;;;;;;;;;43.33;34.00;;;;;;;;5078754;27;46126;-76
2022/04/29 01:55:58;;;;;;;;;42.33;34.33;;;;;;;;5078096;27;45419;-77
2022/04/29 01:58:23;;;;;;;;;51.33;39.33;;;;;;;;5079407;27;45480;-75
2022/04/29 02:00:48;;;;;;;;;45.67;38.67;;;;;;;;5078721;28;45508;-74
2022/04/29 02:03:13;;;;;;;;;48.67;37.67;;;;;;;;5079520;27;46522;-75
2022/04/29 02:05:39;;;;;;;;;44.67;36.33;;;;;;;;5079305;27;45359;-75
2022/04/29 02:08:04;;;;;;;;;42.00;35.67;;;;;;;;5079537;27;45427;-77
2022/04/29 02:10:29;;;;;;;;;49.33;39.67;;;;;;;;5079714;27;45274;-75
2022/04/29 02:12:54;;;;;;;;;37.00;33.33;;;;;;;;5079040;27;45430;-76
2022/04/29 02:15:20;;;;;;;;;50.33;36.33;;;;;;;;5079190;27;45447;-77
2022/04/29 02:17:45;;;;;;;;;46.67;37.33;;;;;;;;5079457;27;45324;-75
2022/04/29 02:20:11;;;;;;;;;48.67;38.00;;;;;;;;5079186;27;45403;-76
2022/04/29 02:22:36;;;;;;;;;49.33;40.67;;;;;;;;5079244;27;45311;-76
2022/04/29 02:25:01;;;;;;;;;48.67;38.00;;;;;;;;5078945;27;45315;-77
2022/04/29 02:27:26;;;;;;;;;57.00;40.33;;;;;;;;5094954;27;45365;-75
2022/04/29 02:29:52;;;;;;;;;52.67;40.00;;;;;;;;5079248;27;45317;-76
2022/04/29 02:32:17;;;;;;;;;48.67;37.67;;;;;;;;5078995;27;45407;-76
2022/04/29 02:34:43;;;;;;;;;49.33;40.00;;;;;;;;5078743;27;45763;-75
2022/04/29 02:37:08;;;;;;;;;48.00;37.33;;;;;;;;5078995;27;45710;-76
2022/04/29 02:39:34;;;;;;;;;44.00;34.67;;;;;;;;5079246;27;45521;-76
2022/04/29 02:41:59;;;;;;;;;52.67;40.00;;;;;;;;5078838;27;46110;-75
2022/04/29 02:44:24;;;;;;;;;44.00;37.00;;;;;;;;5078897;27;45322;-76
2022/04/29 02:47:08;;;;;;;;;44.67;36.00;;;;;;;;5079128;28;45480;-76
2022/04/29 02:49:38;;;;;;;;;37.67;31.67;;;;;;;;5079074;27;45202;-76
2022/04/29 02:52:03;;;;;;;;;51.00;40.00;;;;;;;;5078396;27;47202;-76
2022/04/29 02:54:28;;;;;;;;;47.67;36.00;;;;;;;;5078588;27;45341;-75
2022/04/29 02:56:53;;;;;;;;;48.33;39.67;;;;;;;;5076282;27;45797;-75
2022/04/29 02:59:19;;;;;;;;;45.67;37.33;;;;;;;;5063834;28;45530;-75
2022/04/29 03:01:45;;;;;;;;;53.00;41.33;;;;;;;;5078056;27;46564;-75
2022/04/29 03:04:10;;;;;;;;;47.67;40.00;;;;;;;;5078197;28;45519;-77
2022/04/29 03:06:36;;;;;;;;;46.00;38.00;;;;;;;;5078489;27;45323;-76
2022/04/29 03:09:01;;;;;;;;;48.33;36.67;;;;;;;;5078357;27;45445;-76
2022/04/29 03:11:26;;;;;;;;;49.33;38.00;;;;;;;;5078644;27;46020;-76
2022/04/29 03:13:51;;;;;;;;;46.67;37.00;;;;;;;;5078300;27;45336;-75
2022/04/29 03:16:17;;;;;;;;;52.00;39.67;;;;;;;;5078458;27;45441;-77
2022/04/29 03:18:44;;;;;;;;;45.67;38.00;;;;;;;;5078367;27;45914;-75
2022/04/29 03:21:09;;;;;;;;;45.33;35.33;;;;;;;;5078152;27;47482;-75
2022/04/29 03:23:34;;;;;;;;;47.00;38.00;;;;;;;;5078190;28;45372;-74
2022/04/29 03:26:00;;;;;;;;;43.67;37.33;;;;;;;;5078312;27;45339;-74
2022/04/29 03:28:25;;;;;;;;;49.33;37.33;;;;;;;;5078215;27;45300;-75
2022/04/29 03:30:50;;;;;;;;;51.00;38.67;;;;;;;;5078277;27;45236;-74
2022/04/29 03:33:16;;;;;;;;;40.67;34.33;;;;;;;;5078136;27;45448;-76
2022/04/29 03:35:43;;;;;;;;;45.33;35.00;;;;;;;;5078410;28;45260;-75
2022/04/29 03:38:08;;;;;;;;;41.67;35.33;;;;;;;;5078099;27;45466;-76
2022/04/29 03:40:34;;;;;;;;;39.67;34.67;;;;;;;;5077720;27;46995;-75
2022/04/29 03:42:59;;;;;;;;;48.33;36.67;;;;;;;;5078242;27;45224;-76
2022/04/29 03:45:26;;;;;;;;;47.67;37.00;;;;;;;;5078149;27;45318;-75
2022/04/29 03:47:52;;;;;;;;;42.33;36.33;;;;;;;;5077939;27;45488;-75
2022/04/29 03:50:17;;;;;;;;;44.67;35.33;;;;;;;;5077617;27;46289;-76
2022/04/29 03:52:49;;;;;;;;;39.67;34.00;;;;;;;;5077531;27;45342;-76
2022/04/29 03:55:15;;;;;;;;;48.33;37.67;;;;;;;;5078114;27;45368;-76
2022/04/29 03:57:40;;;;;;;;;45.33;37.67;;;;;;;;5077492;27;45348;-75
2022/04/29 04:00:06;;;;;;;;;41.00;33.00;;;;;;;;5077662;27;45371;-75
2022/04/29 04:02:32;;;;;;;;;51.00;40.67;;;;;;;;5077377;27;45403;-76
2022/04/29 04:04:57;;;;;;;;;43.67;37.33;;;;;;;;5077277;27;45379;-75
2022/04/29 04:07:23;;;;;;;;;44.00;35.00;;;;;;;;5078150;27;45352;-75
2022/04/29 04:09:48;;;;;;;;;45.67;38.00;;;;;;;;5077570;27;46392;-75
2022/04/29 04:12:14;;;;;;;;;44.00;33.67;;;;;;;;5077410;28;45248;-75
2022/04/29 04:14:39;;;;;;;;;48.00;36.00;;;;;;;;5077598;27;45291;-75
2022/04/29 04:17:04;;;;;;;;;46.67;34.33;;;;;;;;5077696;27;45286;-75
2022/04/29 04:19:29;;;;;;;;;48.33;37.33;;;;;;;;5076393;27;45405;-74
2022/04/29 04:21:55;;;;;;;;;51.33;40.00;;;;;;;;5077440;28;45490;-74
2022/04/29 04:24:20;;;;;;;;;45.33;37.33;;;;;;;;5077738;28;45403;-74
2022/04/29 04:26:45;;;;;;;;;50.67;40.00;;;;;;;;5077711;27;45269;-75
2022/04/29 04:29:10;;;;;;;;;53.67;39.67;;;;;;;;5077032;27;46574;-75
2022/04/29 04:31:35;;;;;;;;;49.33;39.67;;;;;;;;5077531;27;45190;-74
2022/04/29 04:34:49;;;;;;;;;47.67;36.67;;;;;;;;5077132;27;45331;-73
2022/04/29 04:36:48;;;;;;;;;47.00;37.67;;;;;;;;5077478;28;45512;-75
2022/04/29 04:39:14;;;;;;;;;53.67;43.00;;;;;;;;5077126;27;46396;-74
2022/04/29 04:41:39;;;;;;;;;48.67;38.00;;;;;;;;5076952;27;45430;-74
2022/04/29 04:44:04;;;;;;;;;51.67;40.00;;;;;;;;5076993;27;45406;-75
2022/04/29 04:46:29;;;;;;;;;46.67;38.00;;;;;;;;5077620;27;45389;-75
2022/04/29 04:48:55;;;;;;;;;49.33;41.00;;;;;;;;5076797;27;46265;-76
2022/04/29 04:51:20;;;;;;;;;53.00;40.67;;;;;;;;5076594;27;45445;-75
2022/04/29 04:53:45;;;;;;;;;43.00;36.33;;;;;;;;5077229;27;45468;-76
2022/04/29 04:56:11;;;;;;;;;53.00;41.00;;;;;;;;5076676;27;45425;-74
2022/04/29 04:58:36;;;;;;;;;47.33;38.67;;;;;;;;5076968;27;45342;-73
2022/04/29 05:01:02;;;;;;;;;50.00;42.00;;;;;;;;5076693;28;45392;-75
2022/04/29 05:03:27;;;;;;;;;49.67;41.33;;;;;;;;5077246;27;45456;-76
2022/04/29 05:05:53;;;;;;;;;47.67;39.33;;;;;;;;5077033;27;45330;-75
2022/04/29 05:08:18;;;;;;;;;47.00;37.33;;;;;;;;5076778;27;46092;-75
2022/04/29 05:10:43;;;;;;;;;47.67;37.00;;;;;;;;5077095;27;45398;-75
2022/04/29 05:13:08;;;;;;;;;54.00;42.00;;;;;;;;5076783;27;45506;-74
2022/04/29 05:15:33;;;;;;;;;43.67;37.67;;;;;;;;5076996;27;45359;-75
2022/04/29 05:17:59;;;;;;;;;45.00;36.67;;;;;;;;5076650;27;47041;-74
2022/04/29 05:20:24;;;;;;;;;49.00;39.33;;;;;;;;5076624;27;45374;-75
2022/04/29 05:22:49;;;;;;;;;43.33;37.67;;;;;;;;5076778;27;45211;-75
2022/04/29 05:25:15;;;;;;;;;45.67;37.33;;;;;;;;5076668;27;45461;-75
2022/04/29 05:27:40;;;;;;;;;49.00;39.67;;;;;;;;5076573;27;46411;-74
2022/04/29 05:30:05;;;;;;;;;40.67;34.00;;;;;;;;5076488;27;45399;-74
2022/04/29 05:32:31;;;;;;;;;54.67;39.67;;;;;;;;5079742;27;45275;-74
2022/04/29 05:34:58;;;;;;;;;45.33;37.00;;;;;;;;5080361;27;45789;-75
2022/04/29 05:37:24;;;;;;;;;41.67;35.00;;;;;;;;5079816;27;46245;-74
2022/04/29 05:42:32;;;;;;;;;48.67;40.33;;;;;;;;5079999;28;45223;-74
2022/04/29 05:44:59;;;;;;;;;48.33;40.33;;;;;;;;5079802;27;45209;-75
2022/04/29 05:47:25;;;;;;;;;44.33;37.00;;;;;;;;5079745;27;46601;-75
2022/04/29 05:49:50;;;;;;;;;46.00;37.00;;;;;;;;5079443;27;45403;-74
2022/04/29 05:52:16;;;;;;;;;46.67;37.67;;;;;;;;5079064;27;45661;-74
2022/04/29 05:54:41;;;;;;;;;38.33;35.00;;;;;;;;5079893;27;45533;-73
2022/04/29 05:57:06;;;;;;;;;44.00;37.00;;;;;;;;5079347;27;47080;-75
2022/04/29 05:59:31;;;;;;;;;50.00;38.33;;;;;;;;5079501;28;45337;-74
2022/04/29 06:01:57;;;;;;;;;43.67;36.67;;;;;;;;5079214;27;45312;-74
2022/04/29 06:04:22;;;;;;;;;43.00;35.67;;;;;;;;5079897;27;45433;-74
2022/04/29 06:06:48;;;;;;;;;48.00;38.00;;;;;;;;5079297;27;46191;-74
2022/04/29 06:09:13;;;;;;;;;44.33;37.00;;;;;;;;5079372;27;45331;-73
2022/04/29 06:11:38;;;;;;;;;48.67;38.67;;;;;;;;5079346;27;45321;-73
2022/04/29 06:14:04;;;;;;;;;49.33;37.67;;;;;;;;5079512;27;45280;-73
2022/04/29 06:16:29;;;;;;;;;49.00;37.00;;;;;;;;5079175;27;47463;-73
2022/04/29 06:18:54;;;;;;;;;42.67;37.67;;;;;;;;5078822;27;45399;-73
2022/04/29 06:21:19;;;;;;;;;41.33;37.33;;;;;;;;5078966;28;45289;-74
2022/04/29 06:23:45;;;;;;;;;45.33;34.67;;;;;;;;5079651;28;45348;-73
2022/04/29 06:26:10;;;;;;;;;46.33;37.67;;;;;;;;5078800;27;46615;-73
2022/04/29 06:28:36;;;;;;;;;44.67;35.67;;;;;;;;5078753;27;45307;-74
2022/04/29 06:31:01;;;;;;;;;40.33;35.33;;;;;;;;5078745;27;45873;-75
2022/04/29 06:33:29;;;;;;;;;44.67;35.67;;;;;;;;5076052;27;45260;-74
2022/04/29 06:35:54;;;;;;;;;43.33;37.00;;;;;;;;5078405;27;46240;-75
2022/04/29 06:38:19;;;;;;;;;42.33;34.67;;;;;;;;5078545;27;45355;-73
2022/04/29 06:40:44;;;;;;;;;47.00;37.00;;;;;;;;5078913;27;45376;-74
2022/04/29 06:43:09;;;;;;;;;47.67;37.00;;;;;;;;5078746;27;45300;-74
2022/04/29 06:45:35;;;;;;;;;48.33;36.33;;;;;;;;5077920;27;46668;-73
2022/04/29 06:48:00;;;;;;;;;42.00;34.33;;;;;;;;5078778;27;45309;-74
2022/04/29 06:50:25;;;;;;;;;44.67;37.33;;;;;;;;5078265;27;45466;-75
2022/04/29 06:52:51;;;;;;;;;39.67;32.00;;;;;;;;5078315;27;45303;-74
2022/04/29 06:55:16;;;;;;;;;45.33;37.00;;;;;;;;5078649;27;46244;-75
2022/04/29 06:57:41;;;;;;;;;40.67;34.00;;;;;;;;5078740;27;45304;-74
2022/04/29 07:00:08;;;;;;;;;38.33;33.00;;;;;;;;5078316;27;45383;-75
2022/04/29 07:02:33;;;;;;;;;43.00;37.33;;;;;;;;5078035;27;45452;-74
2022/04/29 07:04:59;;;;;;;;;45.33;37.67;;;;;;;;5077621;27;46610;-74
2022/04/29 07:07:28;;;;;;;;;45.33;37.67;;;;;;;;5078025;27;45338;-74
2022/04/29 07:09:54;;;;;;;;;39.33;33.00;;;;;;;;5078502;27;45567;-74
2022/04/29 07:12:19;;;;;;;;;41.33;36.33;;;;;;;;5076447;27;45460;-75
2022/04/29 07:14:44;;;;;;;;;43.33;33.67;;;;;;;;5078269;27;45452;-75
2022/04/29 07:17:09;;;;;;;;;40.00;33.67;;;;;;;;5078408;27;45350;-74
2022/04/29 07:19:37;;;;;;;;;36.33;32.67;;;;;;;;5078117;27;45407;-74
2022/04/29 07:22:02;;;;;;;;;46.67;37.33;;;;;;;;5078325;27;45338;-73
2022/04/29 07:24:27;;;;;;;;;37.67;33.00;;;;;;;;5077580;27;46207;-73
2022/04/29 07:26:53;;;;;;;;;44.33;36.00;;;;;;;;5078177;27;45410;-73
2022/04/29 07:29:18;;;;;;;;;37.00;33.00;;;;;;;;5077572;27;45544;-71
2022/04/29 07:31:43;;;;;;;;;45.33;37.00;;;;;;;;5077810;27;45355;-71
2022/04/29 07:34:08;;;;;;;;;41.00;35.00;;;;;;;;5077302;27;46407;-71
2022/04/29 07:42:01;;;;;;;;;38.00;33.67;;;;;;;;5077942;28;45466;-72
2022/04/29 07:44:27;;;;;;;;;40.00;33.67;;;;;;;;5075178;27;46565;-72
2022/04/29 07:46:53;;;;;;;;;40.33;34.00;;;;;;;;5077250;27;45336;-70
2022/04/29 07:49:18;;;;;;;;;46.00;33.50;;;;;;;;5077434;27;45362;-73
2022/04/29 07:51:44;;;;;;;;;38.67;33.00;;;;;;;;5077336;28;45311;-72
2022/04/29 07:54:09;;;;;;;;;47.00;33.67;;;;;;;;5076112;27;46319;-72
2022/04/29 07:56:34;;;;;;;;;39.67;35.33;;;;;;;;5077296;27;45453;-72
2022/04/29 07:59:00;;;;;;;;;40.00;35.33;;;;;;;;5077575;27;45748;-72
2022/04/29 08:01:26;;;;;;;;;42.00;36.00;;;;;;;;5077323;27;45379;-72
2022/04/29 08:03:51;;;;;;;;;40.00;36.00;;;;;;;;5077142;27;45311;-72
2022/04/29 08:06:16;;;;;;;;;43.67;36.00;;;;;;;;5076864;27;45308;-72
2022/04/29 08:08:42;;;;;;;;;41.67;35.00;;;;;;;;5076963;28;45195;-71
2022/04/29 08:11:10;;;;;;;;;47.00;35.67;;;;;;;;5077915;27;45403;-72
2022/04/29 08:13:36;;;;;;;;;47.33;39.00;;;;;;;;5077246;27;46514;-72
2022/04/29 08:16:02;;;;;;;;;44.00;35.33;;;;;;;;5077174;27;45340;-72
2022/04/29 08:18:28;;;;;;;;;41.33;35.00;;;;;;;;5077522;27;45376;-72
2022/04/29 08:20:53;;;;;;;;;45.00;36.67;;;;;;;;5077690;27;45368;-72
2022/04/29 08:23:18;;;;;;;;;28.00;22.67;;;;;;;;5077184;27;47393;-72
2022/04/29 08:25:44;;;;;;;;;45.67;37.67;;;;;;;;5077373;27;45285;-72
2022/04/29 08:28:09;;;;;;;;;45.33;34.67;;;;;;;;5077281;27;45319;-72
2022/04/29 08:30:34;;;;;;;;;44.33;34.67;;;;;;;;5077729;27;45445;-72
2022/04/29 08:32:59;;;;;;;;;44.67;35.00;;;;;;;;5076994;27;46011;-72
2022/04/29 08:35:25;;;;;;;;;35.67;33.00;;;;;;;;5077401;27;45196;-72
2022/04/29 08:37:51;;;;;;;;;41.00;34.00;;;;;;;;5076929;27;45430;-72
2022/04/29 08:40:16;;;;;;;;;39.33;33.33;;;;;;;;5077095;27;45418;-72
2022/04/29 08:42:42;;;;;;;;;37.67;33.00;;;;;;;;5077081;27;46187;-72
2022/04/29 08:45:11;;;;;;;;;39.33;34.00;;;;;;;;5077139;27;45269;-73
2022/04/29 08:47:38;;;;;;;;;43.33;33.33;;;;;;;;5077344;27;45323;-73
2022/04/29 08:50:07;;;;;;;;;36.00;30.00;;;;;;;;5076907;27;45628;-72
2022/04/29 08:52:34;;;;;;;;;32.67;29.67;;;;;;;;5075498;27;46643;-72
2022/04/29 09:00:27;;;;;;;;;37.33;32.67;;;;;;;;5076840;28;45333;-72
2022/04/29 09:02:53;;;;;;;;;43.67;34.33;;;;;;;;5076540;27;46385;-72
2022/04/29 09:05:18;;;;;;;;;42.67;32.00;;;;;;;;5077384;27;45482;-72
2022/04/29 09:07:59;;;;;;;;;42.33;33.00;;;;;;;;5080151;28;45481;-72
2022/04/29 09:10:25;;;;;;;;;37.67;31.33;;;;;;;;5087876;27;45458;-72
2022/04/29 09:12:52;;;;;;;;;35.67;32.00;;;;;;;;5086515;27;46479;-72
2022/04/29 09:15:17;;;;;;;;;35.67;30.33;;;;;;;;5090279;27;45416;-72
2022/04/29 09:17:46;;;;;;;;;35.00;29.00;;;;;;;;5085151;27;45456;-72
2022/04/29 09:20:12;;;;;;;;;35.00;32.00;;;;;;;;5079986;28;45398;-73
2022/04/29 09:22:39;;;;;;;;;36.33;31.00;;;;;;;;5079803;27;47521;-73
2022/04/29 09:25:05;;;;;;;;;37.00;32.33;;;;;;;;5079976;27;45391;-73
2022/04/29 09:27:30;;;;;;;;;30.33;27.67;;;;;;;;5078059;28;45406;-73
2022/04/29 09:29:59;;;;;;;;;31.00;28.00;;;;;;;;5066200;28;45513;-72
2022/04/29 09:32:24;;;;;;;;;37.33;31.00;;;;;;;;5065741;28;47150;-73
2022/04/29 09:34:53;;;;;;;;;31.33;27.00;;;;;;;;5074277;27;45434;-73
2022/04/29 09:37:25;;;;;;;;;31.33;28.00;;;;;;;;5062529;27;45481;-73
2022/04/29 09:39:55;;;;;;;;;36.67;32.33;;;;;;;;5078172;27;45377;-74
2022/04/29 09:42:20;;;;;;;;;25.00;23.33;;;;;;;;5078788;27;46793;-74
2022/04/29 09:44:46;;;;;;;;;33.67;30.33;;;;;;;;5078520;27;45418;-73
2022/04/29 09:47:32;;;;;;;;;33.33;26.33;;;;;;;;5077496;27;45384;-73
2022/04/29 09:49:59;;;;;;;;;35.00;25.33;;;;;;;;5076515;28;45438;-74
2022/04/29 09:52:25;;;;;;;;;28.00;26.00;;;;;;;;5073814;27;46450;-73
2022/04/29 09:54:51;;;;;;;;;30.00;24.33;;;;;;;;5063650;27;45368;-73
2022/04/29 09:57:18;;;;;;;;;26.67;23.67;;;;;;;;5079016;28;45443;-74
2022/04/29 09:59:47;;;;;;;;;28.67;27.67;;;;;;;;5078747;27;45491;-74
2022/04/29 10:02:14;;;;;;;;;25.00;24.00;;;;;;;;5078664;27;45323;-74
2022/04/29 10:04:41;;;;;;;;;32.33;27.33;;;;;;;;5078609;27;45379;-73
2022/04/29 10:07:08;;;;;;;;;24.67;23.00;;;;;;;;5061715;27;45478;-74
2022/04/29 10:09:34;;;;;;;;;28.33;25.67;;;;;;;;5078015;28;45782;-74
2022/04/29 10:12:00;;;;;;;;;30.67;28.00;;;;;;;;5078617;27;45503;-75
2022/04/29 10:14:27;;;;;;;;;24.33;22.67;;;;;;;;5066624;27;45487;-75
2022/04/29 10:22:26;;;;;;;;;28.33;28.00;;;;;;;;5077809;28;45833;-75
2022/04/29 10:24:51;;;;;;;;;34.67;30.00;;;;;;;;5078015;28;45430;-77
2022/04/29 10:27:18;;;;;;;;;31.33;28.67;;;;;;;;5061817;27;45519;-75
2022/04/29 10:29:43;;;;;;;;;33.00;29.33;;;;;;;;5072487;27;45403;-75
2022/04/29 10:32:10;;;;;;;;;34.00;30.00;;;;;;;;5059262;28;47396;-76
2022/04/29 10:34:35;;;;;;;;;40.67;30.00;;;;;;;;5077623;27;45402;-75
2022/04/29 10:37:01;;;;;;;;;34.33;30.00;;;;;;;;5076071;28;45358;-74
2022/04/29 10:39:26;;;;;;;;;34.67;31.67;;;;;;;;5076937;28;45686;-75
2022/04/29 10:42:06;;;;;;;;;32.33;27.33;;;;;;;;5078163;27;46441;-75
2022/04/29 10:44:32;;;;;;;;;33.67;31.00;;;;;;;;5064989;27;45435;-75
2022/04/29 10:47:17;;;;;;;;;38.00;33.00;;;;;;;;5074103;28;45372;-75
2022/04/29 10:49:42;;;;;;;;;36.00;32.67;;;;;;;;5078151;28;45437;-75
2022/04/29 10:52:22;;;;;;;;;37.67;31.67;;;;;;;;5077770;27;46083;-74
2022/04/29 10:54:55;;;;;;;;;36.33;32.00;;;;;;;;5062730;27;45614;-75
2022/04/29 10:57:35;;;;;;;;;38.67;34.00;;;;;;;;5077107;27;45430;-75
2022/04/29 11:00:07;;;;;;;;;46.00;37.67;;;;;;;;5069902;27;45374;-73
2022/04/29 11:02:32;;;;;;;;;43.00;35.00;;;;;;;;5076130;28;47497;-76
2022/04/29 11:04:59;;;;;;;;;40.33;34.33;;;;;;;;5077253;28;45388;-75
2022/04/29 11:07:48;;;;;;;;;45.00;36.33;;;;;;;;5077765;27;45525;-77
2022/04/29 11:10:15;;;;;;;;;43.00;34.33;;;;;;;;5035432;28;45652;-75
2022/04/29 11:12:42;;;;;;;;;43.33;35.67;;;;;;;;5039151;28;46320;-77
2022/04/29 11:15:18;;;;;;;;;48.00;39.33;;;;;;;;5036045;28;45352;-75
2022/04/29 11:17:43;;;;;;;;;42.00;33.67;;;;;;;;5038217;28;45503;-76
2022/04/29 11:20:17;;;;;;;;;44.33;37.67;;;;;;;;5034997;28;45405;-75
2022/04/29 11:25:46;;;;;;;;;41.00;33.67;;;;;;;;5034796;28;45451;-77
2022/04/29 11:28:12;;;;;;;;;50.33;38.67;;;;;;;;5034698;28;45564;-76
2022/04/29 11:30:37;;;;;;;;;50.67;42.00;;;;;;;;5039527;28;46114;-76
2022/04/29 11:33:02;;;;;;;;;52.67;42.00;;;;;;;;5034571;28;46339;-76
2022/04/29 11:35:28;;;;;;;;;50.33;39.33;;;;;;;;5034901;28;45392;-77
2022/04/29 11:37:53;;;;;;;;;50.33;39.67;;;;;;;;5034701;28;45478;-76
2022/04/29 11:40:18;;;;;;;;;48.33;39.67;;;;;;;;5034800;28;45460;-77
2022/04/29 11:42:50;;;;;;;;;46.33;39.00;;;;;;;;5034582;28;45607;-76
2022/04/29 11:45:15;;;;;;;;;48.33;39.33;;;;;;;;5034208;28;45377;-76
2022/04/29 11:47:41;;;;;;;;;50.00;39.67;;;;;;;;5057693;28;45454;-76
2022/04/29 11:50:07;;;;;;;;;48.33;39.67;;;;;;;;5076886;27;45430;-75
2022/04/29 11:52:33;;;;;;;;;51.33;40.00;;;;;;;;5076668;27;46236;-76
2022/04/29 11:55:03;;;;;;;;;47.67;39.00;;;;;;;;5062751;27;45563;-75
2022/04/29 11:57:30;;;;;;;;;42.33;34.67;;;;;;;;5060351;28;45430;-76
2022/04/29 11:59:57;;;;;;;;;48.33;39.00;;;;;;;;5075817;28;45327;-76
2022/04/29 12:02:23;;;;;;;;;47.00;35.33;;;;;;;;5076196;27;46209;-75
2022/04/29 12:04:57;;;;;;;;;43.33;35.67;;;;;;;;5076655;27;45367;-75
2022/04/29 12:07:23;;;;;;;;;52.33;41.00;;;;;;;;5065081;27;45469;-75
2022/04/29 12:09:48;;;;;;;;;39.67;34.67;;;;;;;;5076877;27;45362;-76
2022/04/29 12:12:23;;;;;;;;;47.33;39.67;;;;;;;;5075820;27;47324;-74
2022/04/29 12:14:48;;;;;;;;;49.67;41.33;;;;;;;;5061391;27;45376;-75
2022/04/29 12:17:15;;;;;;;;;42.33;36.00;;;;;;;;5069966;27;45345;-75
2022/04/29 12:19:41;;;;;;;;;47.67;38.00;;;;;;;;5058924;28;45585;-74
2022/04/29 12:22:06;;;;;;;;;48.33;37.00;;;;;;;;5075725;27;46421;-75
2022/04/29 12:24:39;;;;;;;;;52.67;42.67;;;;;;;;5068984;27;45565;-75
2022/04/29 12:27:05;;;;;;;;;40.00;36.67;;;;;;;;5073382;28;45754;-76
2022/04/29 12:29:31;;;;;;;;;51.67;38.00;;;;;;;;5075434;27;45485;-75
2022/04/29 12:34:49;;;;;;;;;49.33;39.67;;;;;;;;5075746;28;45585;-75
2022/04/29 12:37:14;;;;;;;;;39.33;35.67;;;;;;;;5074305;28;45478;-74
2022/04/29 12:39:41;;;;;;;;;45.67;36.67;;;;;;;;5077023;27;45752;-76
2022/04/29 12:42:10;;;;;;;;;46.00;35.67;;;;;;;;5070203;27;46318;-76
2022/04/29 12:45:04;;;;;;;;;48.33;35.00;;;;;;;;5078675;27;45292;-76
2022/04/29 12:47:31;;;;;;;;;33.33;32.33;;;;;;;;5065571;28;45422;-75
2022/04/29 12:50:14;;;;;;;;;45.33;37.67;;;;;;;;5076109;27;45439;-74
2022/04/29 12:52:50;;;;;;;;;45.67;36.33;;;;;;;;5078753;27;46845;-76
2022/04/29 12:55:16;;;;;;;;;37.67;29.67;;;;;;;;5077227;27;45333;-76
2022/04/29 12:57:41;;;;;;;;;41.67;32.67;;;;;;;;5059352;28;45398;-74
2022/04/29 13:00:08;;;;;;;;;39.00;32.33;;;;;;;;5059659;28;45212;-76
2022/04/29 13:02:33;;;;;;;;;35.00;32.00;;;;;;;;5060497;28;46584;-75
2022/04/29 13:04:58;;;;;;;;;34.33;28.33;;;;;;;;5065896;27;45629;-73
2022/04/29 13:07:23;;;;;;;;;33.67;31.33;;;;;;;;5059512;27;45240;-73
2022/04/29 13:09:48;;;;;;;;;40.33;32.33;;;;;;;;5059557;28;45807;-71
2022/04/29 13:12:14;;;;;;;;;40.00;34.33;;;;;;;;5059213;28;45570;-74
2022/04/29 13:14:39;;;;;;;;;41.00;34.67;;;;;;;;5066075;28;45365;-73
2022/04/29 13:17:04;;;;;;;;;30.33;27.33;;;;;;;;5061966;27;45517;-73
2022/04/29 13:19:29;;;;;;;;;36.00;33.33;;;;;;;;5059584;28;45497;-73
2022/04/29 13:21:55;;;;;;;;;34.33;31.00;;;;;;;;5074824;27;45531;-76
2022/04/29 13:24:21;;;;;;;;;33.33;31.33;;;;;;;;5064358;28;45337;-74
2022/04/29 13:26:46;;;;;;;;;38.00;33.67;;;;;;;;5060177;28;45575;-76
2022/04/29 13:29:14;;;;;;;;;36.67;32.00;;;;;;;;5067184;27;45529;-76
2022/04/29 13:31:40;;;;;;;;;39.67;34.67;;;;;;;;5071834;27;47492;-75
2022/04/29 13:34:05;;;;;;;;;33.00;29.33;;;;;;;;5070894;27;45587;-75
2022/04/29 13:36:30;;;;;;;;;38.67;33.33;;;;;;;;5058790;28;45406;-77
2022/04/29 13:38:56;;;;;;;;;48.67;37.33;;;;;;;;5066437;28;45270;-75
2022/04/29 13:41:21;;;;;;;;;40.33;32.67;;;;;;;;5078806;27;46495;-76
2022/04/29 13:43:46;;;;;;;;;34.67;30.67;;;;;;;;5061131;27;45376;-76
2022/04/29 13:46:12;;;;;;;;;34.00;29.67;;;;;;;;5059020;28;45469;-76
2022/04/29 13:48:38;;;;;;;;;37.33;33.00;;;;;;;;5059426;28;45307;-76
2022/04/29 13:51:03;;;;;;;;;42.33;30.67;;;;;;;;5060451;27;46659;-76
2022/04/29 13:53:28;;;;;;;;;38.33;31.67;;;;;;;;5057987;28;45398;-75
2022/04/29 13:55:54;;;;;;;;;40.67;34.67;;;;;;;;5062305;28;45178;-74
2022/04/29 13:58:22;;;;;;;;;35.67;30.67;;;;;;;;5079158;27;45389;-75
2022/04/29 14:00:48;;;;;;;;;38.33;33.00;;;;;;;;5087664;27;47222;-76
2022/04/29 14:03:17;;;;;;;;;101.75;98.25;;;;;;;;5078699;27;45547;-76
2022/04/29 14:05:43;;;;;;;;;42.33;34.00;;;;;;;;5072438;27;45256;-76
2022/04/29 14:08:08;;;;;;;;;30.67;29.33;;;;;;;;5058260;28;45467;-76
2022/04/29 14:10:34;;;;;;;;;35.33;31.33;;;;;;;;5058133;28;46400;-76
2022/04/29 14:13:00;;;;;;;;;32.33;29.67;;;;;;;;5074930;28;45400;-73
2022/04/29 14:15:25;;;;;;;;;36.00;32.00;;;;;;;;5073179;28;45528;-76
2022/04/29 14:17:54;;;;;;;;;28.00;27.33;;;;;;;;5071329;27;45472;-75
2022/04/29 14:20:19;;;;;;;;;35.00;30.67;;;;;;;;5069350;27;46677;-75
2022/04/29 14:22:47;;;;;;;;;34.33;32.33;;;;;;;;5063653;27;45384;-75
2022/04/29 14:25:13;;;;;;;;;34.00;31.33;;;;;;;;5076542;28;45442;-75
2022/04/29 14:27:38;;;;;;;;;29.00;27.33;;;;;;;;5083885;27;45702;-74
2022/04/29 14:30:04;;;;;;;;;26.33;24.33;;;;;;;;5089704;27;46094;-76
2022/04/29 14:32:30;;;;;;;;;32.33;27.33;;;;;;;;5078116;27;45760;-75
2022/04/29 14:34:56;;;;;;;;;31.67;27.00;;;;;;;;5061947;27;45436;-75
2022/04/29 14:37:22;;;;;;;;;38.33;26.33;;;;;;;;5080851;27;45474;-75